createdAt,value
2017-06-26T00:01:40.535Z,69.80
2017-06-26T00:04:07.953Z,70.17
2017-06-26T00:06:36.091Z,69.94
2017-06-26T00:09:03.930Z,70.24
2017-06-26T00:11:31.355Z,70.03
2017-06-26T00:14:01.230Z,70.22
2017-06-26T00:16:28.663Z,70.08
2017-06-26T00:18:56.535Z,69.74
2017-06-26T00:21:23.958Z,69.80
2017-06-26T00:23:51.769Z,69.86
2017-06-26T00:26:19.184Z,69.79
2017-06-26T00:28:46.601Z,69.80
2017-06-26T00:31:18.222Z,70.49
2017-06-26T00:36:24.799Z,70.39
2017-06-26T00:38:52.522Z,70.46
2017-06-26T00:41:20.138Z,70.57
2017-06-26T00:44:02.747Z,70.83
2017-06-26T00:46:30.188Z,70.85
2017-06-26T00:48:57.613Z,71.03
2017-06-26T00:54:04.459Z,71.64
2017-06-26T00:56:32.529Z,72.08
2017-06-26T00:59:03.648Z,72.25
2017-06-26T01:01:31.142Z,72.17
2017-06-26T01:03:59.378Z,72.33
2017-06-26T01:06:29.306Z,72.40
2017-06-26T01:09:00.558Z,72.36
2017-06-26T01:11:27.984Z,72.23
2017-06-26T01:13:56.149Z,72.37
2017-06-26T01:16:23.735Z,72.17
2017-06-26T01:18:54.075Z,72.15
2017-06-26T01:21:21.535Z,71.53
2017-06-26T01:23:49.294Z,71.22
2017-06-26T01:26:16.718Z,71.08
2017-06-26T01:28:44.137Z,71.19
2017-06-26T01:31:11.923Z,71.84
2017-06-26T01:33:39.361Z,71.66
2017-06-26T01:36:13.842Z,71.41
2017-06-26T01:38:41.818Z,71.57
2017-06-26T01:41:09.879Z,71.36
2017-06-26T01:43:39.588Z,71.51
2017-06-26T01:46:07.042Z,71.79
2017-06-26T01:48:36.818Z,71.42
2017-06-26T01:51:04.425Z,71.37
2017-06-26T01:53:32.323Z,71.29
2017-06-26T01:55:59.975Z,71.13
2017-06-26T01:58:29.772Z,71.59
2017-06-26T02:00:57.823Z,71.54
2017-06-26T02:03:25.640Z,71.98
2017-06-26T02:05:53.763Z,71.66
2017-06-26T02:08:21.205Z,72.03
2017-06-26T02:10:48.616Z,72.38
2017-06-26T02:13:16.761Z,72.01
2017-06-26T02:15:44.200Z,72.20
2017-06-26T02:18:11.684Z,72.13
2017-06-26T02:20:39.261Z,72.18
2017-06-26T02:23:08.128Z,72.06
2017-06-26T02:25:36.346Z,71.89
2017-06-26T02:28:05.940Z,72.14
2017-06-26T02:30:34.487Z,72.25
2017-06-26T02:33:02.343Z,72.27
2017-06-26T02:35:29.782Z,71.76
2017-06-26T02:37:57.591Z,71.95
2017-06-26T02:40:25.017Z,71.79
2017-06-26T02:42:53.074Z,71.65
2017-06-26T02:45:20.767Z,71.94
2017-06-26T02:47:48.184Z,72.18
2017-06-26T02:50:15.979Z,72.10
2017-06-26T02:52:43.398Z,71.63
2017-06-26T02:55:10.825Z,71.73
2017-06-26T02:57:44.915Z,71.66
2017-06-26T03:00:12.350Z,71.78
2017-06-26T03:02:40.403Z,71.84
2017-06-26T03:05:07.834Z,71.84
2017-06-26T03:07:35.254Z,72.08
2017-06-26T03:10:03.039Z,72.25
2017-06-26T03:12:34.896Z,72.28
2017-06-26T03:15:02.783Z,72.16
2017-06-26T03:17:32.437Z,72.54
2017-06-26T03:20:06.371Z,72.42
2017-06-26T03:22:33.790Z,72.37
2017-06-26T03:25:02.223Z,72.17
2017-06-26T03:27:30.610Z,72.90
2017-06-26T03:29:58.044Z,73.00
2017-06-26T03:32:26.459Z,72.68
2017-06-26T03:34:54.248Z,72.56
2017-06-26T03:37:22.223Z,73.23
2017-06-26T03:39:50.184Z,73.20
2017-06-26T03:42:17.619Z,73.27
2017-06-26T03:44:46.927Z,73.07
2017-06-26T03:47:14.859Z,73.40
2017-06-26T03:49:42.330Z,73.29
2017-06-26T03:52:11.261Z,73.18
2017-06-26T03:54:38.722Z,73.45
2017-06-26T03:57:06.295Z,73.45
2017-06-26T03:59:33.730Z,74.25
2017-06-26T04:02:01.491Z,74.27
2017-06-26T04:04:30.197Z,74.41
2017-06-26T04:07:00.499Z,74.51
2017-06-26T04:09:28.075Z,74.85
2017-06-26T04:11:58.591Z,75.25
2017-06-26T04:14:26.399Z,75.02
2017-06-26T04:16:53.833Z,74.70
2017-06-26T04:19:29.413Z,74.50
2017-06-26T04:21:56.845Z,73.93
2017-06-26T04:24:24.301Z,73.97
2017-06-26T04:26:52.983Z,73.79
2017-06-26T04:29:20.406Z,74.10
2017-06-26T04:31:48.109Z,74.35
2017-06-26T04:34:17.385Z,74.37
2017-06-26T04:36:44.818Z,74.37
2017-06-26T04:39:12.274Z,74.07
2017-06-26T04:41:39.848Z,74.06
2017-06-26T04:44:09.657Z,73.91
2017-06-26T04:46:37.098Z,73.69
2017-06-26T04:49:05.903Z,73.68
2017-06-26T04:51:33.355Z,73.84
2017-06-26T04:54:00.770Z,73.97
2017-06-26T04:56:28.501Z,74.02
2017-06-26T04:58:57.676Z,74.38
2017-06-26T05:01:25.171Z,74.18
2017-06-26T05:03:52.775Z,74.32
2017-06-26T05:06:20.219Z,74.04
2017-06-26T05:08:49.546Z,73.74
2017-06-26T05:11:17.180Z,73.46
2017-06-26T05:13:44.651Z,73.16
2017-06-26T05:16:14.174Z,73.20
2017-06-26T05:18:41.783Z,73.36
2017-06-26T05:21:09.258Z,73.39
2017-06-26T05:23:36.694Z,73.63
2017-06-26T05:26:08.675Z,73.71
2017-06-26T05:28:36.146Z,73.08
2017-06-26T05:31:03.926Z,72.70
2017-06-26T05:33:31.659Z,72.69
2017-06-26T05:35:59.066Z,71.84
2017-06-26T05:38:26.498Z,71.58
2017-06-26T05:40:53.926Z,71.54
2017-06-26T05:43:21.354Z,71.79
2017-06-26T05:45:48.783Z,71.45
2017-06-26T05:48:16.662Z,71.41
2017-06-26T05:50:44.093Z,71.91
2017-06-26T05:53:12.502Z,71.25
2017-06-26T05:55:40.348Z,71.76
2017-06-26T05:58:09.712Z,72.54
2017-06-26T06:00:39.742Z,71.94
2017-06-26T06:03:07.510Z,71.70
2017-06-26T06:05:34.939Z,71.58
2017-06-26T06:08:17.413Z,71.50
2017-06-26T06:10:47.913Z,71.42
2017-06-26T06:13:15.659Z,71.49
2017-06-26T06:15:43.145Z,71.66
2017-06-26T06:18:11.113Z,71.37
2017-06-26T06:20:39.094Z,71.43
2017-06-26T06:23:06.622Z,71.35
2017-06-26T06:25:34.044Z,71.44
2017-06-26T06:28:01.471Z,71.26
2017-06-26T06:30:29.009Z,71.07
2017-06-26T06:32:57.151Z,71.07
2017-06-26T06:35:24.582Z,70.93
2017-06-26T06:37:52.504Z,71.11
2017-06-26T06:40:20.267Z,71.66
2017-06-26T06:42:47.702Z,71.28
2017-06-26T06:45:15.611Z,71.77
2017-06-26T06:47:43.049Z,71.17
2017-06-26T06:50:11.255Z,71.04
2017-06-26T06:52:38.702Z,70.56
2017-06-26T06:55:06.137Z,70.01
2017-06-26T06:57:36.819Z,70.12
2017-06-26T07:00:04.371Z,70.21
2017-06-26T07:02:31.801Z,70.83
2017-06-26T07:04:59.214Z,70.87
2017-06-26T07:07:29.283Z,71.32
2017-06-26T07:09:57.378Z,71.14
2017-06-26T07:12:24.790Z,70.98
2017-06-26T07:14:52.273Z,71.89
2017-06-26T07:17:19.690Z,72.24
2017-06-26T07:19:47.562Z,72.01
2017-06-26T07:22:15.594Z,72.04
2017-06-26T07:24:43.014Z,72.13
2017-06-26T07:27:10.807Z,71.90
2017-06-26T07:29:38.920Z,71.78
2017-06-26T07:32:07.066Z,71.71
2017-06-26T07:37:01.896Z,71.93
2017-06-26T07:39:29.781Z,71.90
2017-06-26T07:41:57.239Z,71.82
2017-06-26T07:44:24.910Z,72.08
2017-06-26T07:46:52.548Z,71.98
2017-06-26T07:49:19.998Z,71.50
2017-06-26T07:51:47.454Z,70.82
2017-06-26T07:54:15.552Z,70.80
2017-06-26T07:56:43.319Z,70.58
2017-06-26T07:59:11.447Z,70.29
2017-06-26T08:01:38.905Z,69.80
2017-06-26T08:04:06.583Z,69.71
2017-06-26T08:06:36.568Z,70.07
2017-06-26T08:09:04.390Z,71.34
2017-06-26T08:11:31.825Z,72.21
2017-06-26T08:13:59.382Z,71.75
2017-06-26T08:16:26.822Z,71.09
2017-06-26T08:18:54.287Z,70.78
2017-06-26T08:21:22.123Z,70.87
2017-06-26T08:23:49.923Z,69.17
2017-06-26T08:26:21.960Z,68.72
2017-06-26T08:28:49.382Z,68.30
2017-06-26T08:31:16.819Z,68.91
2017-06-26T08:33:44.522Z,69.08
2017-06-26T08:36:11.950Z,69.56
2017-06-26T08:38:41.203Z,72.30
2017-06-26T08:41:08.743Z,72.73
2017-06-26T08:43:38.882Z,73.20
2017-06-26T08:46:06.812Z,73.97
2017-06-26T08:48:34.390Z,71.97
2017-06-26T08:51:01.959Z,72.09
2017-06-26T08:53:30.174Z,71.74
2017-06-26T08:55:57.775Z,71.03
2017-06-26T08:58:25.848Z,71.74
2017-06-26T09:00:53.500Z,71.34
2017-06-26T09:03:21.366Z,70.21
2017-06-26T09:05:48.796Z,68.55
2017-06-26T09:08:16.976Z,68.53
2017-06-26T09:10:44.989Z,68.21
2017-06-26T09:13:12.435Z,66.34
2017-06-26T09:15:39.862Z,67.20
2017-06-26T09:18:07.752Z,64.82
2017-06-26T09:20:35.654Z,64.42
2017-06-26T09:23:03.079Z,64.61
2017-06-26T09:25:32.791Z,64.38
2017-06-26T09:28:00.703Z,64.20
2017-06-26T09:30:43.275Z,64.18
2017-06-26T09:33:11.171Z,66.26
2017-06-26T09:35:38.598Z,66.86
2017-06-26T09:38:06.800Z,66.88
2017-06-26T09:40:34.223Z,67.00
2017-06-26T09:43:01.806Z,67.25
2017-06-26T09:45:29.259Z,67.13
2017-06-26T09:47:57.148Z,67.28
2017-06-26T09:50:28.307Z,66.41
2017-06-26T09:52:55.742Z,64.23
2017-06-26T09:55:23.182Z,60.02
2017-06-26T09:57:50.952Z,59.37
2017-06-26T10:00:18.740Z,57.23
2017-06-26T10:02:46.411Z,56.45
2017-06-26T10:05:14.265Z,56.89
2017-06-26T10:07:41.683Z,58.49
2017-06-26T10:10:10.551Z,56.04
2017-06-26T10:12:38.646Z,56.28
2017-06-26T10:15:06.066Z,53.67
2017-06-26T10:17:33.485Z,51.64
2017-06-26T10:20:00.959Z,52.22
2017-06-26T10:22:28.393Z,54.74
2017-06-26T10:24:55.809Z,55.35
2017-06-26T10:27:23.258Z,57.23
2017-06-26T10:29:50.679Z,57.55
2017-06-26T10:32:18.352Z,58.80
2017-06-26T10:34:48.561Z,59.41
2017-06-26T10:37:15.994Z,57.50
2017-06-26T10:39:43.780Z,56.54
2017-06-26T10:42:11.451Z,53.95
2017-06-26T10:44:39.340Z,54.89
2017-06-26T10:47:07.232Z,55.83
2017-06-26T10:49:36.243Z,56.44
2017-06-26T10:52:04.262Z,57.02
2017-06-26T10:54:36.586Z,57.14
2017-06-26T10:57:04.342Z,57.20
2017-06-26T10:59:31.786Z,57.62
2017-06-26T11:01:59.216Z,56.96
2017-06-26T11:04:27.997Z,56.83
2017-06-26T11:06:55.431Z,56.37
2017-06-26T11:09:24.017Z,56.76
2017-06-26T11:11:51.758Z,56.69
2017-06-26T11:14:19.178Z,57.39
2017-06-26T11:16:46.926Z,57.33
2017-06-26T11:19:14.402Z,56.13
2017-06-26T11:21:41.844Z,55.76
2017-06-26T11:24:09.996Z,55.97
2017-06-26T11:26:37.643Z,55.68
2017-06-26T11:29:05.759Z,55.04
2017-06-26T11:31:33.187Z,55.11
2017-06-26T11:34:00.770Z,55.57
2017-06-26T11:36:28.786Z,54.95
2017-06-26T11:38:56.740Z,54.71
2017-06-26T11:41:25.042Z,55.54
2017-06-26T11:43:52.466Z,56.19
2017-06-26T11:46:20.347Z,54.45
2017-06-26T11:48:49.161Z,53.32
2017-06-26T11:51:16.582Z,53.41
2017-06-26T11:53:44.534Z,53.29
2017-06-26T11:56:12.161Z,53.00
2017-06-26T11:58:40.926Z,51.76
2017-06-26T12:01:08.389Z,53.24
2017-06-26T12:03:35.984Z,52.86
2017-06-26T12:06:03.406Z,53.41
2017-06-26T12:08:31.427Z,53.39
2017-06-26T12:10:59.616Z,53.62
2017-06-26T12:13:27.043Z,52.27
2017-06-26T12:15:54.759Z,53.80
2017-06-26T12:18:23.103Z,52.50
2017-06-26T12:20:50.559Z,52.06
2017-06-26T12:23:20.427Z,50.58
2017-06-26T12:25:48.796Z,52.92
2017-06-26T12:28:16.228Z,52.12
2017-06-26T12:30:45.994Z,53.76
2017-06-26T12:33:14.501Z,50.28
2017-06-26T12:35:41.938Z,50.01
2017-06-26T12:38:12.055Z,45.34
2017-06-26T12:40:41.415Z,43.60
2017-06-26T12:43:09.094Z,42.14
2017-06-26T12:45:37.423Z,44.58
2017-06-26T12:48:05.014Z,40.39
2017-06-26T12:50:34.922Z,40.30
2017-06-26T12:53:02.390Z,39.95
2017-06-26T12:55:30.134Z,41.01
2017-06-26T12:57:58.631Z,43.27
2017-06-26T13:00:26.063Z,43.82
2017-06-26T13:02:53.887Z,45.32
2017-06-26T13:05:21.313Z,44.50
2017-06-26T13:07:48.735Z,45.88
2017-06-26T13:10:16.207Z,45.51
2017-06-26T13:12:43.671Z,44.32
2017-06-26T13:15:11.533Z,43.35
2017-06-26T13:17:39.109Z,43.69
2017-06-26T13:20:06.543Z,42.13
2017-06-26T13:22:34.485Z,43.01
2017-06-26T13:25:03.714Z,41.88
2017-06-26T13:27:31.143Z,41.32
2017-06-26T13:29:59.121Z,43.21
2017-06-26T13:32:26.743Z,43.26
2017-06-26T13:34:54.235Z,42.64
2017-06-26T13:37:21.666Z,41.83
2017-06-26T13:39:49.660Z,42.05
2017-06-26T13:42:17.131Z,42.83
2017-06-26T13:44:44.726Z,41.62
2017-06-26T13:47:12.759Z,43.37
2017-06-26T13:49:41.515Z,43.93
2017-06-26T13:52:09.031Z,43.09
2017-06-26T13:54:36.572Z,43.16
2017-06-26T13:57:04.691Z,43.97
2017-06-26T13:59:32.536Z,45.54
2017-06-26T14:02:02.801Z,44.40
2017-06-26T14:04:30.694Z,42.99
2017-06-26T14:06:58.126Z,44.25
2017-06-26T14:09:26.000Z,42.07
2017-06-26T14:11:53.739Z,41.48
2017-06-26T14:14:21.451Z,41.92
2017-06-26T14:16:49.435Z,40.42
2017-06-26T14:19:16.907Z,39.75
2017-06-26T14:21:44.390Z,40.14
2017-06-26T14:24:11.841Z,40.56
2017-06-26T14:26:39.323Z,40.53
2017-06-26T14:29:06.759Z,40.05
2017-06-26T14:31:34.737Z,41.41
2017-06-26T14:34:02.698Z,41.95
2017-06-26T14:36:30.157Z,41.12
2017-06-26T14:38:58.128Z,40.50
2017-06-26T14:41:25.810Z,42.34
2017-06-26T14:43:53.251Z,40.76
2017-06-26T14:46:22.324Z,41.33
2017-06-26T14:48:49.773Z,40.17
2017-06-26T14:51:17.240Z,39.97
2017-06-26T14:53:44.910Z,40.28
2017-06-26T14:56:12.353Z,39.54
2017-06-26T14:58:39.778Z,39.84
2017-06-26T15:01:07.417Z,38.68
2017-06-26T15:03:34.870Z,40.39
2017-06-26T15:06:17.301Z,40.36
2017-06-26T15:08:44.715Z,39.00
2017-06-26T15:11:12.159Z,39.92
2017-06-26T15:13:39.835Z,41.13
2017-06-26T15:16:07.279Z,39.40
2017-06-26T15:18:35.167Z,39.20
2017-06-26T15:21:02.831Z,39.10
2017-06-26T15:23:30.719Z,38.82
2017-06-26T15:25:58.497Z,39.63
2017-06-26T15:28:27.323Z,40.13
2017-06-26T15:30:54.779Z,38.46
2017-06-26T15:33:28.730Z,40.01
2017-06-26T15:35:56.164Z,39.08
2017-06-26T15:38:24.944Z,38.31
2017-06-26T15:40:52.962Z,40.38
2017-06-26T15:43:20.838Z,39.16
2017-06-26T15:45:49.274Z,39.17
2017-06-26T15:48:19.350Z,39.79
2017-06-26T15:50:46.824Z,39.97
2017-06-26T15:53:14.262Z,39.04
2017-06-26T15:55:41.884Z,39.95
2017-06-26T15:58:09.348Z,40.03
2017-06-26T16:00:36.810Z,38.56
2017-06-26T16:03:04.817Z,38.57
2017-06-26T16:05:32.736Z,39.58
2017-06-26T16:08:06.361Z,38.94
2017-06-26T16:10:35.084Z,38.46
2017-06-26T16:13:02.568Z,38.84
2017-06-26T16:15:30.044Z,38.64
2017-06-26T16:17:57.510Z,39.32
2017-06-26T16:20:25.392Z,40.79
2017-06-26T16:22:54.400Z,39.65
2017-06-26T16:25:22.309Z,39.16
2017-06-26T16:27:49.780Z,38.81
2017-06-26T16:30:17.210Z,38.61
2017-06-26T16:32:44.686Z,37.13
2017-06-26T16:35:12.132Z,37.96
2017-06-26T16:37:42.358Z,38.71
2017-06-26T16:40:10.164Z,37.49
2017-06-26T16:42:37.570Z,38.46
2017-06-26T16:45:05.418Z,38.84
2017-06-26T16:47:32.839Z,38.48
2017-06-26T16:50:00.256Z,37.62
2017-06-26T16:52:32.654Z,37.94
2017-06-26T16:55:00.106Z,39.06
2017-06-26T16:57:27.527Z,38.67
2017-06-26T16:59:54.970Z,39.49
2017-06-26T17:02:22.398Z,37.88
2017-06-26T17:04:49.818Z,37.79
2017-06-26T17:07:17.255Z,38.17
2017-06-26T17:09:44.711Z,37.85
2017-06-26T17:12:12.584Z,38.33
2017-06-26T17:14:40.111Z,37.84
2017-06-26T17:17:07.527Z,38.72
2017-06-26T17:19:38.115Z,38.03
2017-06-26T17:22:05.651Z,38.34
2017-06-26T17:24:33.071Z,38.46
2017-06-26T17:27:00.495Z,38.29
2017-06-26T17:29:28.434Z,38.22
2017-06-26T17:31:56.179Z,39.08
2017-06-26T17:34:23.902Z,38.79
2017-06-26T17:36:51.910Z,38.25
2017-06-26T17:39:20.054Z,38.95
2017-06-26T17:41:47.516Z,38.67
2017-06-26T17:44:15.199Z,38.93
2017-06-26T17:46:42.645Z,39.38
2017-06-26T17:49:10.064Z,39.13
2017-06-26T17:51:37.751Z,39.31
2017-06-26T17:54:05.191Z,39.57
2017-06-26T17:56:32.656Z,39.19
2017-06-26T17:59:00.294Z,39.48
2017-06-26T18:01:28.224Z,40.01
2017-06-26T18:03:57.883Z,39.51
2017-06-26T18:06:26.168Z,39.66
2017-06-26T18:08:56.061Z,39.76
2017-06-26T18:11:23.599Z,38.91
2017-06-26T18:13:51.535Z,39.42
2017-06-26T18:16:19.011Z,39.17
2017-06-26T18:18:46.598Z,39.32
2017-06-26T18:21:14.069Z,39.95
2017-06-26T18:23:41.543Z,38.96
2017-06-26T18:26:08.978Z,39.66
2017-06-26T18:28:36.473Z,39.49
2017-06-26T18:31:04.419Z,39.62
2017-06-26T18:33:31.857Z,39.17
2017-06-26T18:35:59.319Z,39.33
2017-06-26T18:38:26.746Z,39.68
2017-06-26T18:40:54.169Z,39.13
2017-06-26T18:43:24.478Z,39.41
2017-06-26T18:45:51.903Z,39.52
2017-06-26T18:48:20.061Z,39.21
2017-06-26T18:50:48.494Z,39.50
2017-06-26T18:53:16.082Z,40.35
2017-06-26T18:55:43.798Z,40.43
2017-06-26T18:58:11.899Z,39.90
2017-06-26T19:00:40.408Z,39.80
2017-06-26T19:03:08.136Z,40.79
2017-06-26T19:05:35.818Z,40.77
2017-06-26T19:08:03.559Z,41.22
2017-06-26T19:10:30.991Z,40.93
2017-06-26T19:13:00.340Z,41.42
2017-06-26T19:15:27.759Z,41.28
2017-06-26T19:17:55.366Z,41.17
2017-06-26T19:20:23.158Z,41.44
2017-06-26T19:22:50.947Z,41.23
2017-06-26T19:25:19.197Z,41.54
2017-06-26T19:27:46.895Z,41.76
2017-06-26T19:30:14.355Z,42.66
2017-06-26T19:32:42.165Z,42.83
2017-06-26T19:35:10.718Z,42.85
2017-06-26T19:37:38.591Z,44.66
2017-06-26T19:40:06.010Z,45.35
2017-06-26T19:42:33.565Z,44.70
2017-06-26T19:45:01.004Z,44.59
2017-06-26T19:47:28.454Z,46.00
2017-06-26T19:49:55.986Z,45.81
2017-06-26T19:52:23.402Z,47.99
2017-06-26T19:54:51.198Z,49.28
2017-06-26T19:57:19.484Z,49.96
2017-06-26T19:59:46.903Z,50.13
2017-06-26T20:02:14.314Z,50.16
2017-06-26T20:04:42.433Z,50.42
2017-06-26T20:07:09.838Z,50.91
2017-06-26T20:09:37.995Z,51.13
2017-06-26T20:12:06.274Z,51.91
2017-06-26T20:14:33.689Z,52.54
2017-06-26T20:17:01.105Z,52.81
2017-06-26T20:19:28.591Z,51.77
2017-06-26T20:21:56.020Z,52.24
2017-06-26T20:24:23.439Z,51.84
2017-06-26T20:26:51.631Z,51.14
2017-06-26T20:29:19.058Z,50.39
2017-06-26T20:31:46.504Z,50.84
2017-06-26T20:34:14.042Z,50.94
2017-06-26T20:36:41.467Z,50.96
2017-06-26T20:39:11.525Z,49.20
2017-06-26T20:41:41.384Z,50.42
2017-06-26T20:44:08.800Z,49.95
2017-06-26T20:46:36.234Z,51.19
2017-06-26T20:49:03.718Z,52.16
2017-06-26T20:51:34.183Z,51.49
2017-06-26T20:54:02.069Z,52.72
2017-06-26T20:56:29.640Z,52.67
2017-06-26T20:58:57.172Z,51.73
2017-06-26T21:01:24.606Z,51.05
2017-06-26T21:03:52.318Z,50.80
2017-06-26T21:06:20.248Z,51.71
2017-06-26T21:08:47.694Z,51.66
2017-06-26T21:11:15.436Z,51.13
2017-06-26T21:13:42.879Z,51.15
2017-06-26T21:16:12.758Z,51.15
2017-06-26T21:18:40.999Z,51.35
2017-06-26T21:21:09.375Z,51.18
2017-06-26T21:23:37.200Z,51.74
2017-06-26T21:26:04.787Z,51.77
2017-06-26T21:28:38.784Z,51.92
2017-06-26T21:31:06.653Z,52.26
2017-06-26T21:33:34.608Z,52.63
2017-06-26T21:36:02.390Z,52.36
2017-06-26T21:38:30.023Z,51.79
2017-06-26T21:40:57.934Z,52.09
2017-06-26T21:43:26.341Z,52.32
2017-06-26T21:45:54.291Z,51.91
2017-06-26T21:48:21.748Z,52.32
2017-06-26T21:50:50.024Z,52.47
2017-06-26T21:53:17.986Z,53.24
2017-06-26T21:55:45.423Z,53.07
2017-06-26T21:58:12.889Z,53.52
2017-06-26T22:00:40.490Z,54.03
2017-06-26T22:03:11.084Z,54.30
2017-06-26T22:05:38.987Z,53.82
2017-06-26T22:08:06.438Z,54.09
2017-06-26T22:10:36.156Z,54.38
2017-06-26T22:13:03.568Z,54.42
2017-06-26T22:15:31.214Z,53.82
2017-06-26T22:17:58.656Z,54.19
2017-06-26T22:20:26.507Z,54.41
2017-06-26T22:22:54.419Z,54.48
2017-06-26T22:25:22.468Z,54.08
2017-06-26T22:27:49.945Z,54.56
2017-06-26T22:30:17.800Z,54.60
2017-06-26T22:32:45.793Z,54.85
2017-06-26T22:35:13.259Z,54.88
2017-06-26T22:37:40.738Z,55.23
2017-06-26T22:40:09.326Z,55.37
2017-06-26T22:42:37.520Z,54.93
2017-06-26T22:45:04.960Z,55.42
2017-06-26T22:47:46.926Z,55.65
2017-06-26T22:50:14.758Z,55.96
2017-06-26T22:52:43.495Z,55.72
2017-06-26T22:55:10.924Z,55.35
2017-06-26T22:57:38.459Z,55.74
2017-06-26T23:00:05.874Z,56.13
2017-06-26T23:02:34.130Z,56.43
2017-06-26T23:05:01.566Z,56.39
2017-06-26T23:07:28.978Z,56.49
2017-06-26T23:09:56.396Z,56.05
2017-06-26T23:12:24.210Z,56.41
2017-06-26T23:14:51.624Z,55.95
2017-06-26T23:17:19.934Z,56.24
2017-06-26T23:19:47.635Z,56.63
2017-06-26T23:22:15.147Z,56.41
2017-06-26T23:24:45.124Z,56.28
2017-06-26T23:27:13.373Z,56.29
2017-06-26T23:29:41.359Z,56.34
2017-06-26T23:32:09.142Z,56.11
2017-06-26T23:34:36.762Z,56.24
2017-06-26T23:39:41.381Z,56.54
2017-06-26T23:42:09.206Z,56.52
2017-06-26T23:44:36.644Z,56.13
2017-06-26T23:47:05.134Z,56.32
2017-06-26T23:49:32.550Z,56.69
2017-06-26T23:51:59.958Z,56.70
2017-06-26T23:54:27.409Z,56.74
2017-06-26T23:56:55.131Z,56.55
2017-06-26T23:59:22.550Z,56.95
